Etusivu
METAR-TAF:

METAR-TAF

Lentoasemat :

Arvidsjaur, Ruotsi

Leveyspiiri: 65-35-25N, Pituuspiiri: 019-16-55E, korkeus merenpinnasta: 379 m

Tämänhetkinen sää

Tämä raportti tehtiin 21 minuuttia sitten, kello 11.20 UTC
Tuuli 12 kn etelästä/kaakosta
Lämpötila 17°C
Kosteus 68%
Ilmanpaine 1009 hPa
Näkyvyys 10 km tai enemmän

METAR: ESNX 161120Z AUTO 15012KT 9999 SCT025/// OVC031/// 17/11 Q1009

Aika: 13:41 (11:41 UTC)

Sääennuste

Tämä raportti tehtiin 6 tuntia ja 11 minuuttia sitten, kello 05.30 UTC
Ennuste voimassa 16. päivästä klo 06 UTC - 16. päivään klo 09 UTC
Tuuli 12 kn etelästä
Näkyvyys 10 km tai enemmän
ei pilviä alle 1500 m:ssä eikä cumulonimbus-pilviä
Todennäköisyys 40%
16. päivästä klo 06 UTC - 16. päivään klo 08 UTC
Hajonneita pilviä 1200 ft:n korkeudessa

TAF: ESNX 160530Z 1606/1609 18012KT CAVOK PROB40 1606/1608 BKN012

Säähavainnot ja -ennusteet yli 4000 lentoasemalta (METAR- ja TAF-raportit).

Käytössä olevat sääasemat on merkitty karttaan keltaisilla ja punaisilla pisteillä.

Aseta hiiri pisteen päälle nähdäksesi sääaseman nimen.

Klikkaa sitten nähdäksesi säähavainnot ja -ennusteet.

Kartan vaihtaminen: klikkaa mustalla rastilla varustettuja vihreitä pisteitä, niin voit zoomata sisään; viivalla varustettua vihreää pistettä, niin voit zoomata ulos tai vihreitä nuolia, niin pääset viereisille kartoille.


METAR-TAF: